createdAt,value
2023-01-22T00:01:14.480Z,101341.47
2023-01-22T00:03:45.536Z,101355.22
2023-01-22T00:06:14.172Z,101346.53
2023-01-22T00:08:42.692Z,101346.50
2023-01-22T00:11:11.229Z,101344.59
2023-01-22T00:13:41.302Z,101353.19
2023-01-22T00:16:12.138Z,101338.69
2023-01-22T00:18:40.153Z,101347.31
2023-01-22T00:21:07.869Z,101346.22
2023-01-22T00:23:36.031Z,101352.34
2023-01-22T00:26:04.613Z,101363.56
2023-01-22T00:28:32.724Z,101355.81
2023-01-22T00:31:02.274Z,101362.81
2023-01-22T00:33:30.315Z,101364.44
2023-01-22T00:36:08.621Z,101369.44
2023-01-22T00:38:36.553Z,101376.50
2023-01-22T00:41:06.232Z,101373.16
2023-01-22T00:43:35.464Z,101374.06
2023-01-22T00:46:03.319Z,101370.59
2023-01-22T00:48:31.790Z,101375.59
2023-01-22T00:50:59.635Z,101373.13
2023-01-22T00:53:27.580Z,101375.69
2023-01-22T00:56:01.395Z,101375.47
2023-01-22T00:58:30.521Z,101375.50
2023-01-22T01:00:58.592Z,101373.84
2023-01-22T01:03:27.077Z,101382.38
2023-01-22T01:05:56.138Z,101373.84
2023-01-22T01:08:25.629Z,101378.91
2023-01-22T01:11:08.159Z,101375.38
2023-01-22T01:13:38.574Z,101386.69
2023-01-22T01:16:09.196Z,101381.59
2023-01-22T01:18:37.645Z,101395.34
2023-01-22T01:21:07.459Z,101390.13
2023-01-22T01:23:36.593Z,101392.69
2023-01-22T01:26:09.383Z,101391.94
2023-01-22T01:28:40.571Z,101391.03
2023-01-22T01:31:11.915Z,101394.56
2023-01-22T01:33:40.862Z,101391.03
2023-01-22T01:36:16.228Z,101396.16
2023-01-22T01:38:44.371Z,101390.94
2023-01-22T01:41:16.155Z,101404.69
2023-01-22T01:43:44.468Z,101403.03
2023-01-22T01:46:22.474Z,101408.34
2023-01-22T01:48:54.987Z,101412.63
2023-01-22T01:51:35.658Z,101421.16
2023-01-22T01:54:05.373Z,101412.47
2023-01-22T01:56:44.795Z,101416.09
2023-01-22T01:59:16.771Z,101416.75
2023-01-22T02:01:48.766Z,101425.28
2023-01-22T02:04:19.226Z,101424.41
2023-01-22T02:06:46.913Z,101428.59
2023-01-22T02:09:15.405Z,101433.97
2023-01-22T02:11:44.061Z,101432.19
2023-01-22T02:14:20.209Z,101429.06
2023-01-22T02:16:47.905Z,101431.44
2023-01-22T02:19:16.513Z,101429.44
2023-01-22T02:21:46.598Z,101428.69
2023-01-22T02:24:16.674Z,101424.41
2023-01-22T02:26:45.714Z,101422.69
2023-01-22T02:29:18.319Z,101411.59
2023-01-22T02:31:46.063Z,101423.69
2023-01-22T02:34:14.774Z,101421.13
2023-01-22T02:36:46.454Z,101429.72
2023-01-22T02:39:16.205Z,101435.75
2023-01-22T02:41:44.119Z,101440.03
2023-01-22T02:44:13.616Z,101444.38
2023-01-22T02:46:41.296Z,101436.53
2023-01-22T02:49:09.388Z,101439.13
2023-01-22T02:51:37.385Z,101444.34
2023-01-22T02:54:05.796Z,101443.22
2023-01-22T02:56:35.336Z,101444.13
2023-01-22T02:59:05.162Z,101441.38
2023-01-22T03:01:33.277Z,101442.50
2023-01-22T03:04:10.960Z,101445.88
2023-01-22T03:06:46.125Z,101442.50
2023-01-22T03:09:17.038Z,101445.94
2023-01-22T03:11:46.931Z,101449.94
2023-01-22T03:14:45.471Z,101458.72
2023-01-22T03:17:31.839Z,101464.69
2023-01-22T03:20:19.725Z,101464.78
2023-01-22T03:22:48.842Z,101468.22
2023-01-22T03:25:16.897Z,101469.91
2023-01-22T03:28:04.628Z,101470.06
2023-01-22T03:30:35.284Z,101470.81
2023-01-22T03:33:03.005Z,101477.72
2023-01-22T03:35:31.585Z,101478.78
2023-01-22T03:38:13.177Z,101482.22
2023-01-22T03:40:41.627Z,101491.25
2023-01-22T03:43:09.976Z,101491.34
2023-01-22T03:45:38.597Z,101492.16
2023-01-22T03:48:07.606Z,101483.59
2023-01-22T03:50:39.874Z,101486.25
2023-01-22T03:53:07.611Z,101486.06
2023-01-22T03:55:35.516Z,101486.88
2023-01-22T03:58:04.042Z,101488.69
2023-01-22T04:00:32.414Z,101494.78
2023-01-22T04:03:01.423Z,101494.56
2023-01-22T04:05:36.005Z,101502.25
2023-01-22T04:08:03.801Z,101499.66
2023-01-22T04:10:33.766Z,101507.44
2023-01-22T04:13:03.618Z,101514.25
2023-01-22T04:15:31.756Z,101516.31
2023-01-22T04:18:01.500Z,101513.47
2023-01-22T04:20:45.659Z,101511.78
2023-01-22T04:23:32.917Z,101512.00
2023-01-22T04:26:03.693Z,101517.88
2023-01-22T04:28:31.766Z,101510.78
2023-01-22T04:31:01.504Z,101518.50
2023-01-22T04:33:44.228Z,101514.97
2023-01-22T04:36:32.415Z,101514.09
2023-01-22T04:39:00.866Z,101521.28
2023-01-22T04:41:29.429Z,101524.50
2023-01-22T04:43:57.877Z,101529.94
2023-01-22T04:46:27.181Z,101532.44
2023-01-22T04:48:54.914Z,101529.88
2023-01-22T04:51:22.906Z,101534.09
2023-01-22T04:53:50.699Z,101535.81
2023-01-22T04:56:18.635Z,101541.81
2023-01-22T04:58:46.972Z,101552.13
2023-01-22T05:01:16.236Z,101544.22
2023-01-22T05:03:45.399Z,101547.78
2023-01-22T05:06:13.453Z,101551.31
2023-01-22T05:08:41.141Z,101553.81
2023-01-22T05:11:10.888Z,101548.66
2023-01-22T05:13:46.258Z,101548.53
2023-01-22T05:16:14.379Z,101552.81
2023-01-22T05:18:42.448Z,101550.31
2023-01-22T05:21:10.392Z,101553.06
2023-01-22T05:23:38.613Z,101546.91
2023-01-22T05:26:07.848Z,101553.69
2023-01-22T05:28:49.387Z,101549.59
2023-01-22T05:31:30.332Z,101551.19
2023-01-22T05:34:03.286Z,101553.69
2023-01-22T05:36:32.394Z,101558.84
2023-01-22T05:39:09.075Z,101563.38
2023-01-22T05:41:37.425Z,101565.72
2023-01-22T05:44:06.438Z,101568.50
2023-01-22T05:46:34.458Z,101571.19
2023-01-22T05:49:06.078Z,101566.16
2023-01-22T05:51:35.238Z,101569.31
2023-01-22T05:54:03.022Z,101574.41
2023-01-22T05:56:34.271Z,101574.41
2023-01-22T05:59:02.146Z,101579.50
2023-01-22T06:01:30.389Z,101581.38
2023-01-22T06:03:59.919Z,101592.41
2023-01-22T06:06:27.999Z,101594.09
2023-01-22T06:08:57.190Z,101589.88
2023-01-22T06:11:28.405Z,101591.75
2023-01-22T06:13:56.237Z,101593.22
2023-01-22T06:16:24.422Z,101600.47
2023-01-22T06:18:55.574Z,101600.34
2023-01-22T06:21:26.655Z,101602.94
2023-01-22T06:23:55.098Z,101603.63
2023-01-22T06:26:23.311Z,101608.72
2023-01-22T06:28:50.951Z,101610.44
2023-01-22T06:31:18.906Z,101614.03
2023-01-22T06:33:46.739Z,101610.75
2023-01-22T06:36:16.181Z,101618.59
2023-01-22T06:38:44.054Z,101615.97
2023-01-22T06:41:16.282Z,101610.47
2023-01-22T06:43:45.518Z,101614.22
2023-01-22T06:46:14.904Z,101620.38
2023-01-22T06:49:02.642Z,101624.00
2023-01-22T06:51:31.334Z,101628.16
2023-01-22T06:54:00.328Z,101640.19
2023-01-22T06:56:29.239Z,101628.97
2023-01-22T06:58:58.730Z,101632.38
2023-01-22T07:01:26.630Z,101643.59
2023-01-22T07:03:54.315Z,101647.03
2023-01-22T07:06:23.728Z,101648.66
2023-01-22T07:08:52.150Z,101652.13
2023-01-22T07:11:20.059Z,101658.16
2023-01-22T07:13:47.734Z,101669.34
2023-01-22T07:16:15.683Z,101669.31
2023-01-22T07:18:43.297Z,101666.88
2023-01-22T07:21:12.287Z,101677.16
2023-01-22T07:23:41.609Z,101674.59
2023-01-22T07:26:09.547Z,101674.66
2023-01-22T07:28:37.307Z,101675.41
2023-01-22T07:31:09.097Z,101677.06
2023-01-22T07:33:36.870Z,101681.56
2023-01-22T07:36:05.109Z,101684.84
2023-01-22T07:38:33.870Z,101688.13
2023-01-22T07:41:11.438Z,101685.59
2023-01-22T07:43:52.596Z,101694.13
2023-01-22T07:46:20.590Z,101695.91
2023-01-22T07:48:48.351Z,101698.59
2023-01-22T07:51:17.541Z,101703.69
2023-01-22T07:53:45.328Z,101706.50
2023-01-22T07:56:13.429Z,101707.31
2023-01-22T07:58:41.274Z,101708.25
2023-01-22T08:01:11.186Z,101703.97
2023-01-22T08:03:39.623Z,101712.63
2023-01-22T08:06:12.056Z,101720.72
2023-01-22T08:08:39.881Z,101724.88
2023-01-22T08:11:07.745Z,101719.66
2023-01-22T08:13:35.650Z,101719.75
2023-01-22T08:16:04.061Z,101716.38
2023-01-22T08:18:32.063Z,101723.09
2023-01-22T08:21:03.158Z,101716.38
2023-01-22T08:23:31.215Z,101719.84
2023-01-22T08:26:00.682Z,101720.78
2023-01-22T08:28:28.553Z,101725.31
2023-01-22T08:31:00.743Z,101724.28
2023-01-22T08:33:30.858Z,101736.25
2023-01-22T08:35:58.860Z,101732.94
2023-01-22T08:38:26.734Z,101734.47
2023-01-22T08:40:54.670Z,101741.06
2023-01-22T08:43:22.300Z,101739.13
2023-01-22T08:45:50.861Z,101749.66
2023-01-22T08:48:18.978Z,101747.00
2023-01-22T08:50:47.078Z,101749.72
2023-01-22T08:53:14.729Z,101749.59
2023-01-22T08:55:48.222Z,101741.63
2023-01-22T08:58:15.852Z,101748.38
2023-01-22T09:00:44.668Z,101748.69
2023-01-22T09:03:13.185Z,101744.34
2023-01-22T09:05:41.442Z,101754.81
2023-01-22T09:08:09.698Z,101764.03
2023-01-22T09:10:37.683Z,101766.72
2023-01-22T09:13:05.656Z,101766.84
2023-01-22T09:15:33.576Z,101773.09
2023-01-22T09:18:01.236Z,101773.16
2023-01-22T09:20:29.492Z,101770.66
2023-01-22T09:22:57.132Z,101777.03
2023-01-22T09:25:26.431Z,101769.97
2023-01-22T09:28:01.137Z,101772.66
2023-01-22T09:30:30.548Z,101777.78
2023-01-22T09:32:58.364Z,101781.00
2023-01-22T09:35:27.784Z,101787.75
2023-01-22T09:37:55.839Z,101775.28
2023-01-22T09:40:26.407Z,101784.78
2023-01-22T09:43:20.581Z,101781.66
2023-01-22T09:45:51.307Z,101778.97
2023-01-22T09:48:21.114Z,101780.78
2023-01-22T09:50:50.051Z,101776.41
2023-01-22T09:53:21.320Z,101784.34
2023-01-22T09:55:52.635Z,101786.91
2023-01-22T09:58:23.473Z,101791.44
2023-01-22T10:00:56.445Z,101787.97
2023-01-22T10:03:45.758Z,101789.53
2023-01-22T10:06:21.086Z,101785.91
2023-01-22T10:09:09.930Z,101794.69
2023-01-22T10:11:38.761Z,101792.94
2023-01-22T10:14:12.541Z,101789.31
2023-01-22T10:16:40.476Z,101786.84
2023-01-22T10:19:50.314Z,101793.03
2023-01-22T10:22:24.158Z,101789.47
2023-01-22T10:24:52.818Z,101784.31
2023-01-22T10:27:25.817Z,101789.47
2023-01-22T10:30:01.188Z,101779.13
2023-01-22T10:32:32.478Z,101786.59
2023-01-22T10:35:05.822Z,101781.59
2023-01-22T10:37:47.138Z,101775.75
2023-01-22T10:40:27.188Z,101783.47
2023-01-22T10:43:31.938Z,101768.03
2023-01-22T10:46:06.131Z,101776.63
2023-01-22T10:48:34.792Z,101772.47
2023-01-22T10:51:17.597Z,101773.31
2023-01-22T10:53:52.714Z,101769.03
2023-01-22T10:56:30.355Z,101769.97
2023-01-22T10:59:02.329Z,101775.00
2023-01-22T11:01:39.565Z,101767.25
2023-01-22T11:04:20.416Z,101765.34
2023-01-22T11:06:59.658Z,101768.00
2023-01-22T11:09:51.414Z,101766.41
2023-01-22T11:12:27.884Z,101766.09
2023-01-22T11:15:17.903Z,101772.50
2023-01-22T11:17:54.630Z,101768.78
2023-01-22T11:20:29.473Z,101771.63
2023-01-22T11:23:38.828Z,101779.25
2023-01-22T11:26:25.612Z,101777.66
2023-01-22T11:29:17.753Z,101776.75
2023-01-22T11:32:13.466Z,101779.25
2023-01-22T11:34:41.083Z,101766.75
2023-01-22T11:37:52.568Z,101771.66
2023-01-22T11:40:32.156Z,101769.09
2023-01-22T11:43:12.083Z,101767.88
2023-01-22T11:46:09.990Z,101764.59
2023-01-22T11:49:05.901Z,101754.97
2023-01-22T11:51:55.793Z,101755.63
2023-01-22T11:55:06.143Z,101761.53
2023-01-22T11:57:37.429Z,101759.50
2023-01-22T12:00:14.289Z,101757.81
2023-01-22T12:02:47.801Z,101754.41
2023-01-22T12:05:37.078Z,101752.63
2023-01-22T12:08:17.489Z,101753.81
2023-01-22T12:11:04.064Z,101749.34
2023-01-22T12:13:52.167Z,101765.09
2023-01-22T12:16:38.918Z,101754.47
2023-01-22T12:19:12.373Z,101757.03
2023-01-22T12:22:04.766Z,101759.84
2023-01-22T12:25:00.260Z,101758.84
2023-01-22T12:27:39.301Z,101762.25
2023-01-22T12:30:18.297Z,101761.13
2023-01-22T12:32:59.827Z,101761.84
2023-01-22T12:35:31.545Z,101768.09
2023-01-22T12:38:09.569Z,101761.75
2023-01-22T12:40:58.613Z,101764.56
2023-01-22T12:43:45.685Z,101773.25
2023-01-22T12:46:32.997Z,101766.47
2023-01-22T12:49:07.937Z,101769.78
2023-01-22T12:51:44.374Z,101775.00
2023-01-22T12:54:21.796Z,101769.38
2023-01-22T12:56:53.867Z,101766.69
2023-01-22T12:59:43.075Z,101771.78
2023-01-22T13:02:35.679Z,101775.88
2023-01-22T13:05:38.160Z,101773.22
2023-01-22T13:08:05.881Z,101779.25
2023-01-22T13:10:36.192Z,101785.28
2023-01-22T13:13:35.425Z,101783.41
2023-01-22T13:16:18.821Z,101781.72
2023-01-22T13:18:55.352Z,101786.00
2023-01-22T13:21:32.773Z,101784.47
2023-01-22T13:24:04.162Z,101793.81
2023-01-22T13:26:35.482Z,101794.88
2023-01-22T13:29:17.388Z,101792.31
2023-01-22T13:32:03.095Z,101793.66
2023-01-22T13:34:32.162Z,101781.50
2023-01-22T13:37:00.427Z,101785.84
2023-01-22T13:39:33.363Z,101783.03
2023-01-22T13:42:06.101Z,101788.06
2023-01-22T13:44:40.142Z,101777.94
2023-01-22T13:47:08.200Z,101784.91
2023-01-22T13:49:43.058Z,101792.63
2023-01-22T13:52:18.753Z,101796.25
2023-01-22T13:55:02.424Z,101797.09
2023-01-22T13:57:30.286Z,101805.50
2023-01-22T14:00:00.425Z,101801.63
2023-01-22T14:02:30.952Z,101805.09
2023-01-22T14:04:59.328Z,101807.47
2023-01-22T14:07:31.242Z,101818.34
2023-01-22T14:10:12.124Z,101817.00
2023-01-22T14:12:40.101Z,101822.97
2023-01-22T14:15:18.935Z,101826.38
2023-01-22T14:17:49.731Z,101822.13
2023-01-22T14:20:19.034Z,101831.63
2023-01-22T14:22:48.656Z,101827.25
2023-01-22T14:25:16.415Z,101832.44
2023-01-22T14:27:47.509Z,101822.84
2023-01-22T14:30:19.260Z,101826.03
2023-01-22T14:32:47.518Z,101834.91
2023-01-22T14:35:20.425Z,101838.38
2023-01-22T14:37:49.114Z,101838.38
2023-01-22T14:40:18.925Z,101846.81
2023-01-22T14:42:47.688Z,101853.00
2023-01-22T14:45:17.008Z,101848.66
2023-01-22T14:47:48.837Z,101848.66
2023-01-22T14:50:17.463Z,101857.31
2023-01-22T14:52:45.996Z,101858.88
2023-01-22T14:55:14.204Z,101856.53
2023-01-22T14:57:42.081Z,101860.94
2023-01-22T15:00:12.160Z,101865.25
2023-01-22T15:02:41.667Z,101860.19
2023-01-22T15:05:10.565Z,101860.06
2023-01-22T15:07:38.756Z,101860.19
2023-01-22T15:10:08.302Z,101871.22
2023-01-22T15:12:36.454Z,101869.66
2023-01-22T15:15:04.468Z,101855.31
2023-01-22T15:17:32.562Z,101867.31
2023-01-22T15:20:00.406Z,101867.50
2023-01-22T15:22:28.563Z,101873.41
2023-01-22T15:24:56.285Z,101882.13
2023-01-22T15:27:24.219Z,101877.41
2023-01-22T15:29:51.944Z,101882.25
2023-01-22T15:32:19.923Z,101886.63
2023-01-22T15:34:47.583Z,101881.13
2023-01-22T15:37:15.610Z,101882.72
2023-01-22T15:39:43.437Z,101887.81
2023-01-22T15:42:11.401Z,101873.28
2023-01-22T15:44:39.173Z,101890.06
2023-01-22T15:47:07.271Z,101899.88
2023-01-22T15:49:35.287Z,101893.84
2023-01-22T15:52:03.575Z,101894.81
2023-01-22T15:54:31.171Z,101896.56
2023-01-22T15:56:59.401Z,101895.84
2023-01-22T15:59:27.478Z,101894.09
2023-01-22T16:04:12.758Z,101891.72
2023-01-22T16:06:40.711Z,101885.16
2023-01-22T16:09:08.669Z,101905.28
2023-01-22T16:11:37.126Z,101908.72
2023-01-22T16:14:04.906Z,101906.66
2023-01-22T16:16:36.446Z,101915.69
2023-01-22T16:19:06.814Z,101917.78
2023-01-22T16:21:35.463Z,101930.88
2023-01-22T16:24:03.596Z,101925.25
2023-01-22T16:26:33.846Z,101928.72
2023-01-22T16:29:03.764Z,101931.13
2023-01-22T16:31:34.292Z,101939.47
2023-01-22T16:34:08.962Z,101938.75
2023-01-22T16:36:37.345Z,101929.59
2023-01-22T16:39:05.922Z,101931.47
2023-01-22T16:41:36.272Z,101929.44
2023-01-22T16:44:08.552Z,101932.03
2023-01-22T16:46:41.890Z,101935.44
2023-01-22T16:49:15.529Z,101937.59
2023-01-22T16:51:45.500Z,101941.59
2023-01-22T16:54:28.807Z,101941.59
2023-01-22T16:56:58.880Z,101945.03
2023-01-22T16:59:27.630Z,101946.94
2023-01-22T17:01:58.662Z,101945.09
2023-01-22T17:04:27.306Z,101954.34
2023-01-22T17:06:57.842Z,101961.28
2023-01-22T17:09:31.290Z,101962.09
2023-01-22T17:12:01.948Z,101960.34
2023-01-22T17:14:31.416Z,101965.50
2023-01-22T17:16:59.780Z,101968.22
2023-01-22T17:19:27.824Z,101964.69
2023-01-22T17:21:59.725Z,101964.69
2023-01-22T17:24:29.058Z,101970.75
2023-01-22T17:27:02.678Z,101965.50
2023-01-22T17:29:34.991Z,101966.38
2023-01-22T17:32:03.924Z,101971.63
2023-01-22T17:34:31.777Z,101968.75
2023-01-22T17:36:59.822Z,101972.22
2023-01-22T17:39:27.850Z,101981.59
2023-01-22T17:41:55.902Z,101985.81
2023-01-22T17:44:26.652Z,101987.78
2023-01-22T17:46:59.072Z,101991.16
2023-01-22T17:49:27.316Z,101989.28
2023-01-22T17:51:55.262Z,101992.56
2023-01-22T17:54:23.115Z,101995.84
2023-01-22T17:56:53.205Z,101996.34
2023-01-22T17:59:22.472Z,101993.44
2023-01-22T18:01:50.659Z,102003.25
2023-01-22T18:04:18.410Z,101997.91
2023-01-22T18:06:46.920Z,102001.41
2023-01-22T18:09:14.627Z,102000.66
2023-01-22T18:11:42.973Z,102007.50
2023-01-22T18:14:17.002Z,102002.91
2023-01-22T18:16:45.955Z,101998.00
2023-01-22T18:19:14.147Z,102005.66
2023-01-22T18:21:42.292Z,101996.75
2023-01-22T18:24:11.641Z,101997.91
2023-01-22T18:26:39.803Z,102006.84
2023-01-22T18:29:08.405Z,102000.69
2023-01-22T18:31:36.530Z,101993.84
2023-01-22T18:34:06.599Z,102003.91
2023-01-22T18:36:38.856Z,102004.91
2023-01-22T18:39:10.951Z,102004.91
2023-01-22T18:41:40.814Z,102007.25
2023-01-22T18:44:10.257Z,102007.25
2023-01-22T18:46:45.223Z,102018.66
2023-01-22T18:49:18.635Z,102016.72
2023-01-22T18:51:47.197Z,102014.81
2023-01-22T18:54:15.209Z,102018.16
2023-01-22T18:56:43.196Z,102012.19
2023-01-22T18:59:13.043Z,102008.06
2023-01-22T19:01:42.861Z,102008.22
2023-01-22T19:04:17.978Z,102006.31
2023-01-22T19:06:49.397Z,102011.66
2023-01-22T19:09:17.725Z,102014.34
2023-01-22T19:11:47.598Z,102017.69
2023-01-22T19:14:20.377Z,102018.09
2023-01-22T19:16:52.597Z,102014.09
2023-01-22T19:19:21.804Z,102014.88
2023-01-22T19:24:11.584Z,102025.44
2023-01-22T19:26:39.733Z,102020.09
2023-01-22T19:29:11.224Z,102009.66
2023-01-22T19:31:46.386Z,102021.78
2023-01-22T19:34:21.110Z,102020.69
2023-01-22T19:36:49.964Z,102023.31
2023-01-22T19:39:17.754Z,102021.47
2023-01-22T19:41:46.110Z,102016.63
2023-01-22T19:44:13.889Z,102031.78
2023-01-22T19:46:42.268Z,102032.75
2023-01-22T19:49:12.854Z,102042.13
2023-01-22T19:51:41.049Z,102039.81
2023-01-22T19:54:08.952Z,102039.75
2023-01-22T19:56:39.073Z,102039.88
2023-01-22T19:59:10.657Z,102035.63
2023-01-22T20:01:39.252Z,102041.53
2023-01-22T20:04:12.059Z,102043.13
2023-01-22T20:06:40.557Z,102045.53
2023-01-22T20:09:08.294Z,102042.22
2023-01-22T20:11:36.287Z,102044.06
2023-01-22T20:14:03.936Z,102043.97
2023-01-22T20:16:31.925Z,102047.47
2023-01-22T20:18:59.613Z,102040.63
2023-01-22T20:21:27.926Z,102050.59
2023-01-22T20:23:55.749Z,102048.84
2023-01-22T20:26:24.002Z,102049.66
2023-01-22T20:28:52.151Z,102054.00
2023-01-22T20:31:25.658Z,102052.53
2023-01-22T20:33:56.981Z,102056.19
2023-01-22T20:36:27.924Z,102058.13
2023-01-22T20:38:56.254Z,102053.78
2023-01-22T20:41:27.494Z,102054.94
2023-01-22T20:43:55.568Z,102058.66
2023-01-22T20:46:26.101Z,102070.78
2023-01-22T20:48:56.251Z,102067.13
2023-01-22T20:51:28.475Z,102060.28
2023-01-22T20:53:57.501Z,102064.75
2023-01-22T20:56:30.331Z,102065.47
2023-01-22T20:59:00.749Z,102069.22
2023-01-22T21:01:29.556Z,102073.75
2023-01-22T21:03:58.730Z,102072.44
2023-01-22T21:06:29.781Z,102075.81
2023-01-22T21:08:58.891Z,102081.50
2023-01-22T21:11:29.939Z,102083.84
2023-01-22T21:13:59.427Z,102083.94
2023-01-22T21:16:30.136Z,102087.09
2023-01-22T21:19:07.164Z,102092.16
2023-01-22T21:21:36.156Z,102090.50
2023-01-22T21:24:04.426Z,102092.41
2023-01-22T21:26:33.335Z,102090.50
2023-01-22T21:29:08.481Z,102101.34
2023-01-22T21:31:37.467Z,102099.59
2023-01-22T21:34:07.894Z,102099.69
2023-01-22T21:36:41.046Z,102095.19
2023-01-22T21:39:14.714Z,102096.38
2023-01-22T21:41:43.700Z,102092.41
2023-01-22T21:44:36.549Z,102094.25
2023-01-22T21:47:05.305Z,102087.34
2023-01-22T21:49:34.926Z,102091.53
2023-01-22T21:52:05.861Z,102095.28
2023-01-22T21:54:39.928Z,102095.78
2023-01-22T21:57:11.809Z,102095.72
2023-01-22T21:59:39.665Z,102090.81
2023-01-22T22:02:12.043Z,102078.69
2023-01-22T22:04:39.791Z,102088.53
2023-01-22T22:07:07.768Z,102099.50
2023-01-22T22:09:35.438Z,102102.31
2023-01-22T22:12:03.617Z,102098.63
2023-01-22T22:14:31.772Z,102103.38
2023-01-22T22:16:59.858Z,102107.75
2023-01-22T22:19:28.972Z,102104.78
2023-01-22T22:21:57.075Z,102108.19
2023-01-22T22:24:24.890Z,102103.13
2023-01-22T22:26:52.986Z,102105.69
2023-01-22T22:29:20.670Z,102100.22
2023-01-22T22:31:48.761Z,102102.16
2023-01-22T22:34:16.685Z,102101.72
2023-01-22T22:36:44.594Z,102101.03
2023-01-22T22:39:12.229Z,102097.47
2023-01-22T22:41:40.244Z,102106.88
2023-01-22T22:44:10.348Z,102109.47
2023-01-22T22:46:39.715Z,102106.16
2023-01-22T22:49:11.697Z,102109.56
2023-01-22T22:51:41.652Z,102111.66
2023-01-22T22:54:15.949Z,102113.78
2023-01-22T22:56:45.375Z,102113.44
2023-01-22T22:59:13.953Z,102119.38
2023-01-22T23:01:42.311Z,102132.63
2023-01-22T23:04:10.907Z,102133.00
2023-01-22T23:06:39.166Z,102132.72
2023-01-22T23:09:16.204Z,102145.06
2023-01-22T23:11:44.684Z,102149.19
2023-01-22T23:14:12.979Z,102147.75
2023-01-22T23:16:42.909Z,102139.06
2023-01-22T23:19:28.894Z,102143.66
2023-01-22T23:21:59.364Z,102139.03
2023-01-22T23:24:27.847Z,102145.53
2023-01-22T23:26:57.032Z,102149.72
2023-01-22T23:29:26.878Z,102156.13
2023-01-22T23:31:56.010Z,102156.31
2023-01-22T23:34:24.119Z,102153.97
2023-01-22T23:36:52.421Z,102155.50
2023-01-22T23:39:21.267Z,102149.38
2023-01-22T23:41:49.507Z,102152.13
2023-01-22T23:44:17.718Z,102158.19
2023-01-22T23:46:45.887Z,102162.47
2023-01-22T23:49:13.742Z,102152.09
2023-01-22T23:51:43.602Z,102162.22
2023-01-22T23:54:11.586Z,102157.41
2023-01-22T23:56:39.504Z,102164.31
2023-01-22T23:59:07.209Z,102158.28
